This is the latest recevied weather packets stored in our database for station/object KM4KMS. If no packets are shown the sender has not sent any weather packets the latest 1 day(s).
| Time | Temp. | Humidity | Pressure | Rain* | Wind** | Luminosity | Snow |
|---|---|---|---|---|---|---|---|
| 1778089390 | 15.56° C | 64% | 1011.8 hPa | 0 mm | - | 645 W/m² | - |
| 1778088784 | 15.56° C | 67% | 1012.2 hPa | 0 mm | - | 646 W/m² | - |
| 1778088481 | 15.56° C | 70% | 1012.2 hPa | 0 mm | - | 686 W/m² | - |
| 1778088177 | 15° C | 71% | 1012.1 hPa | 0 mm | - | 732 W/m² | - |
| 1778087875 | 15.56° C | 70% | 1012.2 hPa | 0 mm | - | 711 W/m² | - |
| 1778087572 | 16.11° C | 71% | 1012.2 hPa | 0 mm | - | 662 W/m² | - |
| 1778085755 | 15.56° C | 74% | 1012.5 hPa | 0 mm | - | 642 W/m² | - |
| 1778084843 | 14.44° C | 71% | 1012.7 hPa | 0 mm | - | 714 W/m² | - |
| 1778084238 | 13.89° C | 74% | 1012.9 hPa | 0 mm | - | 788 W/m² | - |
| 1778083627 | 13.33° C | 78% | 1012.5 hPa | 0 mm | - | 616 W/m² | - |
| 1778083022 | 13.89° C | 73% | 1012.6 hPa | 0 mm | - | 721 W/m² | - |
| 1778080066 | 12.78° C | 77% | 1011.8 hPa | 0 mm | - | 669 W/m² | - |
| 1778077342 | 11.11° C | 80% | 1011.9 hPa | 0 mm | - | 455 W/m² | - |
| 1778077040 | 10.56° C | 84% | 1011.8 hPa | 0 mm | - | 465 W/m² | - |
| 1778076738 | 10.56° C | 82% | 1011.8 hPa | 0 mm | - | 411 W/m² | - |
| 1778075222 | 9.44° C | 86% | 1011.2 hPa | 0 mm | - | 177 W/m² | - |
| 1778074918 | 8.89° C | 87% | 1011.2 hPa | 0 mm | - | 139 W/m² | - |
| 1778074312 | 8.89° C | 88% | 1011.4 hPa | 0 mm | - | 141 W/m² | - |
| 1778073706 | 8.89° C | 89% | 1011.1 hPa | 0 mm | - | 148 W/m² | - |
| 1778073404 | 8.33° C | 90% | 1010.9 hPa | 0 mm | - | 137 W/m² | - |
| 1778069469 | 7.78° C | 93% | 1010.8 hPa | 0 mm | - | 86 W/m² | - |
| 1778069167 | 7.78° C | 93% | 1010.7 hPa | 0 mm | - | 91 W/m² | - |
| 1778068864 | 7.22° C | 94% | 1010.2 hPa | 0 mm | - | 91 W/m² | - |
| 1778067957 | 7.22° C | 94% | 1010.6 hPa | 0 mm | - | 48 W/m² | - |
| 1778067353 | 7.22° C | 94% | 1010.1 hPa | 0 mm | - | 44 W/m² | - |
* Rain latest hour (hover to see other rain measurements)
** Current wind speed in m/s (hover to see current wind gust speed)